sensor_id;sensor_type;location;lat;lon;timestamp;P1;P2;P0
71794;PMS7003;59641;45.188;5.712;2023-07-24T00:02:20;7.00;6.50;5.00
71794;PMS7003;59641;45.188;5.712;2023-07-24T00:04:45;6.50;6.50;5.25
71794;PMS7003;59641;45.188;5.712;2023-07-24T00:07:11;6.25;5.00;3.00
71794;PMS7003;59641;45.188;5.712;2023-07-24T00:09:36;5.25;5.25;5.00
71794;PMS7003;59641;45.188;5.712;2023-07-24T00:12:01;9.00;7.50;5.25
71794;PMS7003;59641;45.188;5.712;2023-07-24T00:14:27;7.00;6.50;5.00
71794;PMS7003;59641;45.188;5.712;2023-07-24T00:16:52;7.50;7.00;5.00
71794;PMS7003;59641;45.188;5.712;2023-07-24T00:19:17;5.00;5.00;4.50
71794;PMS7003;59641;45.188;5.712;2023-07-24T00:21:43;8.00;7.00;6.25
71794;PMS7003;59641;45.188;5.712;2023-07-24T00:24:08;10.00;7.50;6.00
71794;PMS7003;59641;45.188;5.712;2023-07-24T00:26:33;8.25;8.25;5.00
71794;PMS7003;59641;45.188;5.712;2023-07-24T00:28:59;6.00;6.00;5.00
71794;PMS7003;59641;45.188;5.712;2023-07-24T00:31:24;8.00;8.00;6.00
71794;PMS7003;59641;45.188;5.712;2023-07-24T00:33:50;6.00;6.00;4.50
71794;PMS7003;59641;45.188;5.712;2023-07-24T00:36:15;7.00;7.00;4.50
71794;PMS7003;59641;45.188;5.712;2023-07-24T00:38:40;7.25;7.25;4.50
71794;PMS7003;59641;45.188;5.712;2023-07-24T00:41:06;10.00;9.25;6.50
71794;PMS7003;59641;45.188;5.712;2023-07-24T00:43:31;8.00;6.00;5.00
71794;PMS7003;59641;45.188;5.712;2023-07-24T00:45:56;7.00;6.50;5.25
71794;PMS7003;59641;45.188;5.712;2023-07-24T00:48:22;7.00;6.25;5.00
71794;PMS7003;59641;45.188;5.712;2023-07-24T00:50:47;7.50;7.50;5.50
71794;PMS7003;59641;45.188;5.712;2023-07-24T00:53:13;7.25;6.25;4.50
71794;PMS7003;59641;45.188;5.712;2023-07-24T00:55:42;8.60;7.00;5.00
71794;PMS7003;59641;45.188;5.712;2023-07-24T00:58:08;7.25;5.75;3.50
71794;PMS7003;59641;45.188;5.712;2023-07-24T01:00:36;7.00;7.00;5.00
71794;PMS7003;59641;45.188;5.712;2023-07-24T01:03:03;6.80;6.80;5.40
71794;PMS7003;59641;45.188;5.712;2023-07-24T01:05:28;8.25;7.00;5.75
71794;PMS7003;59641;45.188;5.712;2023-07-24T01:07:54;6.80;6.80;5.40
71794;PMS7003;59641;45.188;5.712;2023-07-24T01:10:20;6.00;6.00;4.25
71794;PMS7003;59641;45.188;5.712;2023-07-24T01:12:52;5.00;5.00;3.00
71794;PMS7003;59641;45.188;5.712;2023-07-24T01:18:10;5.20;5.20;4.60
71794;PMS7003;59641;45.188;5.712;2023-07-24T01:20:39;8.40;6.40;5.20
71794;PMS7003;59641;45.188;5.712;2023-07-24T01:25:57;6.20;6.20;5.00
71794;PMS7003;59641;45.188;5.712;2023-07-24T01:28:24;5.80;5.80;4.80
71794;PMS7003;59641;45.188;5.712;2023-07-24T01:30:50;5.20;5.20;4.40
71794;PMS7003;59641;45.188;5.712;2023-07-24T01:33:16;6.40;6.20;5.20
71794;PMS7003;59641;45.188;5.712;2023-07-24T01:35:42;6.50;6.50;4.25
71794;PMS7003;59641;45.188;5.712;2023-07-24T01:38:09;4.40;4.40;3.40
71794;PMS7003;59641;45.188;5.712;2023-07-24T01:40:41;4.20;4.20;3.00
71794;PMS7003;59641;45.188;5.712;2023-07-24T01:43:07;6.40;5.60;4.60
71794;PMS7003;59641;45.188;5.712;2023-07-24T01:45:33;5.50;5.50;4.50
71794;PMS7003;59641;45.188;5.712;2023-07-24T01:47:59;6.00;4.75;4.00
71794;PMS7003;59641;45.188;5.712;2023-07-24T01:50:24;5.25;5.25;4.00
71794;PMS7003;59641;45.188;5.712;2023-07-24T01:52:50;6.00;6.00;4.00
71794;PMS7003;59641;45.188;5.712;2023-07-24T01:55:15;5.75;5.75;5.25
71794;PMS7003;59641;45.188;5.712;2023-07-24T01:57:41;9.00;7.50;4.00
71794;PMS7003;59641;45.188;5.712;2023-07-24T02:00:06;7.00;7.00;5.50
71794;PMS7003;59641;45.188;5.712;2023-07-24T02:02:32;9.75;8.00;6.75
71794;PMS7003;59641;45.188;5.712;2023-07-24T02:04:57;10.00;9.75;7.00
71794;PMS7003;59641;45.188;5.712;2023-07-24T02:07:22;8.00;6.75;5.75
71794;PMS7003;59641;45.188;5.712;2023-07-24T02:09:48;10.75;9.25;7.00
71794;PMS7003;59641;45.188;5.712;2023-07-24T02:12:13;9.50;8.50;6.00
71794;PMS7003;59641;45.188;5.712;2023-07-24T02:14:38;9.00;9.00;6.00
71794;PMS7003;59641;45.188;5.712;2023-07-24T02:17:04;4.75;4.00;3.00
71794;PMS7003;59641;45.188;5.712;2023-07-24T02:19:29;6.50;6.50;5.25
71794;PMS7003;59641;45.188;5.712;2023-07-24T02:21:55;8.50;7.75;6.75
71794;PMS7003;59641;45.188;5.712;2023-07-24T02:24:20;6.00;6.00;4.75
71794;PMS7003;59641;45.188;5.712;2023-07-24T02:26:45;6.50;6.50;4.00
71794;PMS7003;59641;45.188;5.712;2023-07-24T02:29:11;6.75;6.75;5.00
71794;PMS7003;59641;45.188;5.712;2023-07-24T02:31:36;5.50;5.50;4.50
71794;PMS7003;59641;45.188;5.712;2023-07-24T02:34:01;6.25;4.75;4.25
71794;PMS7003;59641;45.188;5.712;2023-07-24T02:36:27;7.75;6.00;4.25
71794;PMS7003;59641;45.188;5.712;2023-07-24T02:38:52;5.50;5.50;4.25
71794;PMS7003;59641;45.188;5.712;2023-07-24T02:41:18;8.75;8.25;6.00
71794;PMS7003;59641;45.188;5.712;2023-07-24T02:43:43;7.25;6.75;4.50
71794;PMS7003;59641;45.188;5.712;2023-07-24T02:46:08;4.50;4.50;3.00
71794;PMS7003;59641;45.188;5.712;2023-07-24T02:48:34;6.00;6.00;5.00
71794;PMS7003;59641;45.188;5.712;2023-07-24T02:51:00;8.00;7.00;5.50
71794;PMS7003;59641;45.188;5.712;2023-07-24T02:53:25;7.00;6.50;5.00
71794;PMS7003;59641;45.188;5.712;2023-07-24T02:55:50;6.75;6.00;3.25
71794;PMS7003;59641;45.188;5.712;2023-07-24T02:58:15;5.25;5.00;4.00
71794;PMS7003;59641;45.188;5.712;2023-07-24T03:00:41;5.00;5.00;4.50
71794;PMS7003;59641;45.188;5.712;2023-07-24T03:03:06;5.00;5.00;4.00
71794;PMS7003;59641;45.188;5.712;2023-07-24T03:05:33;7.00;6.00;5.00
71794;PMS7003;59641;45.188;5.712;2023-07-24T03:07:59;6.60;6.00;4.60
71794;PMS7003;59641;45.188;5.712;2023-07-24T03:10:24;5.25;5.25;4.50
71794;PMS7003;59641;45.188;5.712;2023-07-24T03:12:49;7.00;7.00;5.50
71794;PMS7003;59641;45.188;5.712;2023-07-24T03:15:15;7.50;6.25;5.25
71794;PMS7003;59641;45.188;5.712;2023-07-24T03:17:40;5.75;5.75;4.75
71794;PMS7003;59641;45.188;5.712;2023-07-24T03:20:13;8.00;8.00;4.25
71794;PMS7003;59641;45.188;5.712;2023-07-24T03:22:41;6.40;6.20;4.20
71794;PMS7003;59641;45.188;5.712;2023-07-24T03:25:07;6.00;6.00;4.20
71794;PMS7003;59641;45.188;5.712;2023-07-24T03:27:32;6.00;4.00;4.00
71794;PMS7003;59641;45.188;5.712;2023-07-24T03:29:58;7.50;6.25;4.25
71794;PMS7003;59641;45.188;5.712;2023-07-24T03:32:23;7.50;7.50;6.00
71794;PMS7003;59641;45.188;5.712;2023-07-24T03:34:48;6.75;6.75;5.50
71794;PMS7003;59641;45.188;5.712;2023-07-24T03:37:14;6.00;6.00;4.00
71794;PMS7003;59641;45.188;5.712;2023-07-24T03:39:39;4.50;4.00;4.00
71794;PMS7003;59641;45.188;5.712;2023-07-24T03:42:04;4.00;4.00;3.00
71794;PMS7003;59641;45.188;5.712;2023-07-24T03:44:30;4.50;4.50;3.50
71794;PMS7003;59641;45.188;5.712;2023-07-24T03:46:55;6.00;6.00;5.00
71794;PMS7003;59641;45.188;5.712;2023-07-24T03:49:20;7.75;6.75;5.00
71794;PMS7003;59641;45.188;5.712;2023-07-24T03:51:47;8.20;8.20;5.00
71794;PMS7003;59641;45.188;5.712;2023-07-24T03:54:12;3.50;3.50;3.00
71794;PMS7003;59641;45.188;5.712;2023-07-24T03:56:38;5.00;4.25;3.00
71794;PMS7003;59641;45.188;5.712;2023-07-24T03:59:03;4.00;4.00;2.00
71794;PMS7003;59641;45.188;5.712;2023-07-24T04:01:28;5.00;5.00;3.00
71794;PMS7003;59641;45.188;5.712;2023-07-24T04:03:54;4.25;4.25;3.25
71794;PMS7003;59641;45.188;5.712;2023-07-24T04:06:19;6.00;4.75;3.75
71794;PMS7003;59641;45.188;5.712;2023-07-24T04:08:44;6.50;6.50;4.00
71794;PMS7003;59641;45.188;5.712;2023-07-24T04:11:10;5.75;5.75;4.00
71794;PMS7003;59641;45.188;5.712;2023-07-24T04:13:35;5.00;5.00;5.00
71794;PMS7003;59641;45.188;5.712;2023-07-24T04:16:00;7.50;7.50;6.75
71794;PMS7003;59641;45.188;5.712;2023-07-24T04:18:26;6.75;6.75;4.50
71794;PMS7003;59641;45.188;5.712;2023-07-24T04:20:51;7.75;6.50;5.00
71794;PMS7003;59641;45.188;5.712;2023-07-24T04:23:16;5.75;5.00;3.25
71794;PMS7003;59641;45.188;5.712;2023-07-24T04:25:42;8.50;7.00;5.50
71794;PMS7003;59641;45.188;5.712;2023-07-24T04:28:07;6.50;6.50;6.00
71794;PMS7003;59641;45.188;5.712;2023-07-24T04:30:32;7.25;7.25;5.75
71794;PMS7003;59641;45.188;5.712;2023-07-24T04:32:58;9.75;9.75;7.50
71794;PMS7003;59641;45.188;5.712;2023-07-24T04:35:23;12.50;11.25;6.50
71794;PMS7003;59641;45.188;5.712;2023-07-24T04:37:48;7.50;7.00;4.25
71794;PMS7003;59641;45.188;5.712;2023-07-24T04:40:16;8.60;6.20;4.60
71794;PMS7003;59641;45.188;5.712;2023-07-24T04:42:41;7.25;6.25;5.00
71794;PMS7003;59641;45.188;5.712;2023-07-24T04:45:07;6.00;6.00;5.00
71794;PMS7003;59641;45.188;5.712;2023-07-24T04:47:32;8.80;5.40;4.60
71794;PMS7003;59641;45.188;5.712;2023-07-24T04:49:58;9.25;9.25;7.00
71794;PMS7003;59641;45.188;5.712;2023-07-24T04:52:23;8.25;6.25;4.50
71794;PMS7003;59641;45.188;5.712;2023-07-24T04:54:48;6.50;6.50;5.25
71794;PMS7003;59641;45.188;5.712;2023-07-24T04:57:14;6.75;6.00;4.50
71794;PMS7003;59641;45.188;5.712;2023-07-24T04:59:39;6.50;5.50;4.25
71794;PMS7003;59641;45.188;5.712;2023-07-24T05:02:04;7.75;7.75;6.00
71794;PMS7003;59641;45.188;5.712;2023-07-24T05:04:30;9.50;8.00;6.75
71794;PMS7003;59641;45.188;5.712;2023-07-24T05:06:55;9.50;7.75;6.00
71794;PMS7003;59641;45.188;5.712;2023-07-24T05:09:20;6.50;6.50;4.50
71794;PMS7003;59641;45.188;5.712;2023-07-24T05:11:45;9.00;9.00;6.75
71794;PMS7003;59641;45.188;5.712;2023-07-24T05:14:11;8.25;6.75;5.75
71794;PMS7003;59641;45.188;5.712;2023-07-24T05:16:36;9.75;7.25;6.00
71794;PMS7003;59641;45.188;5.712;2023-07-24T05:19:02;9.25;9.00;6.50
71794;PMS7003;59641;45.188;5.712;2023-07-24T05:21:27;9.00;7.25;5.25
71794;PMS7003;59641;45.188;5.712;2023-07-24T05:23:52;6.50;6.50;5.75
71794;PMS7003;59641;45.188;5.712;2023-07-24T05:26:18;10.00;8.75;7.00
71794;PMS7003;59641;45.188;5.712;2023-07-24T05:28:43;6.25;6.25;4.75
71794;PMS7003;59641;45.188;5.712;2023-07-24T05:31:09;7.75;7.75;4.25
71794;PMS7003;59641;45.188;5.712;2023-07-24T05:33:34;9.50;8.25;6.50
71794;PMS7003;59641;45.188;5.712;2023-07-24T05:36:03;8.25;7.00;5.00
71794;PMS7003;59641;45.188;5.712;2023-07-24T05:38:29;10.20;9.00;7.20
71794;PMS7003;59641;45.188;5.712;2023-07-24T05:40:58;9.25;9.00;6.50
71794;PMS7003;59641;45.188;5.712;2023-07-24T05:43:25;6.20;6.20;5.40
71794;PMS7003;59641;45.188;5.712;2023-07-24T05:45:50;11.75;11.50;7.25
71794;PMS7003;59641;45.188;5.712;2023-07-24T05:48:16;10.00;9.60;6.80
71794;PMS7003;59641;45.188;5.712;2023-07-24T05:50:42;11.50;10.00;8.00
71794;PMS7003;59641;45.188;5.712;2023-07-24T05:53:07;7.75;7.75;6.50
71794;PMS7003;59641;45.188;5.712;2023-07-24T05:55:32;12.50;10.75;7.25
71794;PMS7003;59641;45.188;5.712;2023-07-24T05:57:58;9.50;9.00;6.00
71794;PMS7003;59641;45.188;5.712;2023-07-24T06:00:23;10.00;9.50;7.00
71794;PMS7003;59641;45.188;5.712;2023-07-24T06:02:49;9.75;8.00;6.00
71794;PMS7003;59641;45.188;5.712;2023-07-24T06:05:14;7.25;7.25;5.75
71794;PMS7003;59641;45.188;5.712;2023-07-24T06:07:39;9.50;9.25;7.00
71794;PMS7003;59641;45.188;5.712;2023-07-24T06:10:05;9.00;8.25;5.75
71794;PMS7003;59641;45.188;5.712;2023-07-24T06:12:30;8.00;8.00;5.00
71794;PMS7003;59641;45.188;5.712;2023-07-24T06:14:56;7.25;5.25;4.75
71794;PMS7003;59641;45.188;5.712;2023-07-24T06:17:21;8.00;7.00;5.00
71794;PMS7003;59641;45.188;5.712;2023-07-24T06:19:46;8.75;7.00;5.50
71794;PMS7003;59641;45.188;5.712;2023-07-24T06:22:12;8.00;8.00;6.50
71794;PMS7003;59641;45.188;5.712;2023-07-24T06:24:37;8.00;7.00;5.00
71794;PMS7003;59641;45.188;5.712;2023-07-24T06:27:03;6.00;6.00;5.00
71794;PMS7003;59641;45.188;5.712;2023-07-24T06:29:31;7.80;7.80;6.00
71794;PMS7003;59641;45.188;5.712;2023-07-24T06:31:56;7.50;7.50;5.25
71794;PMS7003;59641;45.188;5.712;2023-07-24T06:34:22;9.75;8.75;6.00
71794;PMS7003;59641;45.188;5.712;2023-07-24T06:36:47;9.00;7.75;6.00
71794;PMS7003;59641;45.188;5.712;2023-07-24T06:39:13;7.25;7.25;6.25
71794;PMS7003;59641;45.188;5.712;2023-07-24T06:41:38;10.25;9.25;6.00
71794;PMS7003;59641;45.188;5.712;2023-07-24T06:44:03;9.00;9.00;6.75
71794;PMS7003;59641;45.188;5.712;2023-07-24T06:46:29;11.25;9.00;7.00
71794;PMS7003;59641;45.188;5.712;2023-07-24T06:48:54;8.75;8.75;6.00
71794;PMS7003;59641;45.188;5.712;2023-07-24T06:51:19;11.50;9.75;7.00
71794;PMS7003;59641;45.188;5.712;2023-07-24T06:53:45;11.50;10.00;7.50
71794;PMS7003;59641;45.188;5.712;2023-07-24T06:56:10;4.75;4.75;3.25
71794;PMS7003;59641;45.188;5.712;2023-07-24T06:58:35;11.50;10.75;8.00
71794;PMS7003;59641;45.188;5.712;2023-07-24T07:01:04;11.50;10.00;6.50
71794;PMS7003;59641;45.188;5.712;2023-07-24T07:03:31;10.60;10.40;7.80
71794;PMS7003;59641;45.188;5.712;2023-07-24T07:05:59;8.00;8.00;6.25
71794;PMS7003;59641;45.188;5.712;2023-07-24T07:08:25;9.00;9.00;7.80
71794;PMS7003;59641;45.188;5.712;2023-07-24T07:10:57;9.25;8.00;6.50
71794;PMS7003;59641;45.188;5.712;2023-07-24T07:13:22;10.20;10.20;8.00
71794;PMS7003;59641;45.188;5.712;2023-07-24T07:15:48;8.00;8.00;6.00
71794;PMS7003;59641;45.188;5.712;2023-07-24T07:18:13;9.00;8.50;6.25
71794;PMS7003;59641;45.188;5.712;2023-07-24T07:20:44;10.50;8.75;7.25
71794;PMS7003;59641;45.188;5.712;2023-07-24T07:23:10;8.20;8.00;6.80
71794;PMS7003;59641;45.188;5.712;2023-07-24T07:25:35;5.00;5.00;4.25
71794;PMS7003;59641;45.188;5.712;2023-07-24T07:28:01;6.75;6.75;5.75
71794;PMS7003;59641;45.188;5.712;2023-07-24T07:30:26;9.00;9.00;6.75
71794;PMS7003;59641;45.188;5.712;2023-07-24T07:32:51;10.25;9.75;6.00
71794;PMS7003;59641;45.188;5.712;2023-07-24T07:35:17;9.50;9.50;6.75
71794;PMS7003;59641;45.188;5.712;2023-07-24T07:37:42;8.75;8.75;6.00
71794;PMS7003;59641;45.188;5.712;2023-07-24T07:40:07;9.50;8.25;7.25
71794;PMS7003;59641;45.188;5.712;2023-07-24T07:42:33;10.75;9.25;6.75
71794;PMS7003;59641;45.188;5.712;2023-07-24T07:44:58;11.00;9.50;7.50
71794;PMS7003;59641;45.188;5.712;2023-07-24T07:47:24;10.25;9.00;7.00
71794;PMS7003;59641;45.188;5.712;2023-07-24T07:49:49;8.75;8.75;6.00
71794;PMS7003;59641;45.188;5.712;2023-07-24T07:52:14;8.50;8.50;6.75
71794;PMS7003;59641;45.188;5.712;2023-07-24T07:54:47;9.80;9.80;7.20
71794;PMS7003;59641;45.188;5.712;2023-07-24T07:57:13;10.20;8.00;6.80
71794;PMS7003;59641;45.188;5.712;2023-07-24T07:59:38;12.00;10.00;8.00
71794;PMS7003;59641;45.188;5.712;2023-07-24T08:02:04;8.75;8.75;6.00
71794;PMS7003;59641;45.188;5.712;2023-07-24T08:04:29;8.25;8.25;6.25
71794;PMS7003;59641;45.188;5.712;2023-07-24T08:06:54;12.00;10.25;7.00
71794;PMS7003;59641;45.188;5.712;2023-07-24T08:09:20;12.25;9.75;7.50
71794;PMS7003;59641;45.188;5.712;2023-07-24T08:11:46;9.80;9.40;6.60
71794;PMS7003;59641;45.188;5.712;2023-07-24T08:14:12;14.25;13.50;8.75
71794;PMS7003;59641;45.188;5.712;2023-07-24T08:16:37;11.00;7.25;3.75
71794;PMS7003;59641;45.188;5.712;2023-07-24T08:19:03;12.00;11.75;7.00
71794;PMS7003;59641;45.188;5.712;2023-07-24T08:21:28;11.50;11.00;8.75
71794;PMS7003;59641;45.188;5.712;2023-07-24T08:23:53;12.25;11.25;7.75
71794;PMS7003;59641;45.188;5.712;2023-07-24T08:26:19;12.75;11.00;8.00
71794;PMS7003;59641;45.188;5.712;2023-07-24T08:28:44;13.00;12.75;10.75
71794;PMS7003;59641;45.188;5.712;2023-07-24T08:31:10;16.25;15.00;11.25
71794;PMS7003;59641;45.188;5.712;2023-07-24T08:33:36;10.25;8.50;7.25
71794;PMS7003;59641;45.188;5.712;2023-07-24T08:36:02;11.50;11.50;8.00
71794;PMS7003;59641;45.188;5.712;2023-07-24T08:38:29;7.20;7.00;4.60
71794;PMS7003;59641;45.188;5.712;2023-07-24T08:41:07;9.25;9.25;7.25
71794;PMS7003;59641;45.188;5.712;2023-07-24T08:43:35;14.50;12.25;8.75
71794;PMS7003;59641;45.188;5.712;2023-07-24T08:46:03;7.20;7.20;6.00
71794;PMS7003;59641;45.188;5.712;2023-07-24T08:48:30;9.00;8.20;6.00
71794;PMS7003;59641;45.188;5.712;2023-07-24T08:51:03;10.80;10.20;8.00
71794;PMS7003;59641;45.188;5.712;2023-07-24T08:53:30;10.60;10.40;7.20
71794;PMS7003;59641;45.188;5.712;2023-07-24T08:55:59;10.00;10.00;6.60
71794;PMS7003;59641;45.188;5.712;2023-07-24T08:58:25;7.60;7.20;5.60
71794;PMS7003;59641;45.188;5.712;2023-07-24T09:00:50;9.00;9.00;6.00
71794;PMS7003;59641;45.188;5.712;2023-07-24T09:03:17;9.00;9.00;6.25
71794;PMS7003;59641;45.188;5.712;2023-07-24T09:05:43;8.00;7.00;5.20
71794;PMS7003;59641;45.188;5.712;2023-07-24T09:08:09;9.25;8.50;6.75
71794;PMS7003;59641;45.188;5.712;2023-07-24T09:10:34;9.75;9.50;6.75
71794;PMS7003;59641;45.188;5.712;2023-07-24T09:13:00;11.25;11.25;9.00
71794;PMS7003;59641;45.188;5.712;2023-07-24T09:15:28;8.00;8.00;7.60
71794;PMS7003;59641;45.188;5.712;2023-07-24T09:17:54;8.75;7.75;6.75
71794;PMS7003;59641;45.188;5.712;2023-07-24T09:20:19;10.00;8.50;6.25
71794;PMS7003;59641;45.188;5.712;2023-07-24T09:22:48;9.50;8.00;6.25
71794;PMS7003;59641;45.188;5.712;2023-07-24T09:25:18;7.00;7.00;5.00
71794;PMS7003;59641;45.188;5.712;2023-07-24T09:27:54;9.40;8.00;6.20
71794;PMS7003;59641;45.188;5.712;2023-07-24T09:30:19;7.75;7.75;6.00
71794;PMS7003;59641;45.188;5.712;2023-07-24T09:32:51;4.40;3.00;1.80
71794;PMS7003;59641;45.188;5.712;2023-07-24T09:35:18;8.80;8.40;6.00
71794;PMS7003;59641;45.188;5.712;2023-07-24T09:37:44;11.80;11.40;8.40
71794;PMS7003;59641;45.188;5.712;2023-07-24T09:40:10;9.80;9.80;7.60
71794;PMS7003;59641;45.188;5.712;2023-07-24T09:42:37;11.80;11.40;7.80
71794;PMS7003;59641;45.188;5.712;2023-07-24T09:45:03;9.40;8.80;7.60
71794;PMS7003;59641;45.188;5.712;2023-07-24T09:47:30;12.60;11.20;9.00
71794;PMS7003;59641;45.188;5.712;2023-07-24T09:49:56;10.00;8.80;7.00
71794;PMS7003;59641;45.188;5.712;2023-07-24T09:52:21;9.25;9.25;7.75
71794;PMS7003;59641;45.188;5.712;2023-07-24T09:57:25;8.00;8.00;6.00
71794;PMS7003;59641;45.188;5.712;2023-07-24T09:59:52;7.60;7.60;6.60
71794;PMS7003;59641;45.188;5.712;2023-07-24T10:02:20;7.00;5.80;4.00
71794;PMS7003;59641;45.188;5.712;2023-07-24T10:04:46;9.20;9.20;6.40
71794;PMS7003;59641;45.188;5.712;2023-07-24T10:07:13;6.60;6.60;5.60
71794;PMS7003;59641;45.188;5.712;2023-07-24T10:09:38;11.20;10.00;6.20
71794;PMS7003;59641;45.188;5.712;2023-07-24T10:12:05;9.20;8.40;7.40
71794;PMS7003;59641;45.188;5.712;2023-07-24T10:14:30;7.75;7.75;6.00
71794;PMS7003;59641;45.188;5.712;2023-07-24T10:16:56;8.25;7.00;6.00
71794;PMS7003;59641;45.188;5.712;2023-07-24T10:19:22;11.25;11.25;8.50
71794;PMS7003;59641;45.188;5.712;2023-07-24T10:21:48;9.00;8.75;7.25
71794;PMS7003;59641;45.188;5.712;2023-07-24T10:24:14;10.00;8.75;6.00
71794;PMS7003;59641;45.188;5.712;2023-07-24T10:26:40;10.40;10.40;8.00
71794;PMS7003;59641;45.188;5.712;2023-07-24T10:29:06;12.75;11.50;7.00
71794;PMS7003;59641;45.188;5.712;2023-07-24T10:31:31;9.75;8.75;7.25
71794;PMS7003;59641;45.188;5.712;2023-07-24T10:34:06;11.00;11.00;8.25
71794;PMS7003;59641;45.188;5.712;2023-07-24T10:36:33;8.80;8.80;7.00
71794;PMS7003;59641;45.188;5.712;2023-07-24T10:38:59;10.00;10.00;8.00
71794;PMS7003;59641;45.188;5.712;2023-07-24T10:41:35;9.00;6.50;5.50
71794;PMS7003;59641;45.188;5.712;2023-07-24T10:44:01;12.25;10.75;7.75
71794;PMS7003;59641;45.188;5.712;2023-07-24T10:46:35;8.00;7.75;6.00
71794;PMS7003;59641;45.188;5.712;2023-07-24T10:49:02;8.50;8.50;6.25
71794;PMS7003;59641;45.188;5.712;2023-07-24T10:51:28;10.25;10.25;7.00
71794;PMS7003;59641;45.188;5.712;2023-07-24T10:53:54;11.25;10.50;8.75
71794;PMS7003;59641;45.188;5.712;2023-07-24T10:56:20;8.00;8.00;7.50
71794;PMS7003;59641;45.188;5.712;2023-07-24T10:58:45;8.25;8.25;7.50
71794;PMS7003;59641;45.188;5.712;2023-07-24T11:01:11;8.75;7.75;6.00
71794;PMS7003;59641;45.188;5.712;2023-07-24T11:03:37;9.25;9.00;6.75
71794;PMS7003;59641;45.188;5.712;2023-07-24T11:06:04;8.40;8.40;7.00
71794;PMS7003;59641;45.188;5.712;2023-07-24T11:08:30;7.50;7.00;6.00
71794;PMS7003;59641;45.188;5.712;2023-07-24T11:10:57;8.00;7.00;6.00
71794;PMS7003;59641;45.188;5.712;2023-07-24T11:13:24;12.25;11.50;7.50
71794;PMS7003;59641;45.188;5.712;2023-07-24T11:15:51;8.20;6.60;5.60
71794;PMS7003;59641;45.188;5.712;2023-07-24T11:18:17;8.80;8.00;6.00
71794;PMS7003;59641;45.188;5.712;2023-07-24T11:20:49;11.00;11.00;7.60
71794;PMS7003;59641;45.188;5.712;2023-07-24T11:23:15;7.25;7.25;5.25
71794;PMS7003;59641;45.188;5.712;2023-07-24T11:25:41;7.75;6.50;5.00
71794;PMS7003;59641;45.188;5.712;2023-07-24T11:28:07;8.00;7.75;6.50
71794;PMS7003;59641;45.188;5.712;2023-07-24T11:30:35;9.00;8.25;5.75
71794;PMS7003;59641;45.188;5.712;2023-07-24T11:33:02;6.25;6.00;5.00
71794;PMS7003;59641;45.188;5.712;2023-07-24T11:35:29;7.20;7.00;6.00
71794;PMS7003;59641;45.188;5.712;2023-07-24T11:37:55;7.75;7.25;5.75
71794;PMS7003;59641;45.188;5.712;2023-07-24T11:40:21;7.75;7.75;6.00
71794;PMS7003;59641;45.188;5.712;2023-07-24T11:42:47;6.50;5.75;4.75
71794;PMS7003;59641;45.188;5.712;2023-07-24T11:45:13;7.00;6.40;5.40
71794;PMS7003;59641;45.188;5.712;2023-07-24T11:50:08;8.60;8.20;7.20
71794;PMS7003;59641;45.188;5.712;2023-07-24T11:52:39;10.25;10.25;8.00
71794;PMS7003;59641;45.188;5.712;2023-07-24T11:55:12;7.60;7.60;6.00
71794;PMS7003;59641;45.188;5.712;2023-07-24T11:57:39;8.80;8.80;7.40
71794;PMS7003;59641;45.188;5.712;2023-07-24T12:00:05;9.00;8.50;7.25
71794;PMS7003;59641;45.188;5.712;2023-07-24T12:02:43;9.75;9.75;8.50
71794;PMS7003;59641;45.188;5.712;2023-07-24T12:05:09;9.50;9.50;6.75
71794;PMS7003;59641;45.188;5.712;2023-07-24T12:07:35;7.20;7.20;6.00
71794;PMS7003;59641;45.188;5.712;2023-07-24T12:10:01;7.25;7.00;6.25
71794;PMS7003;59641;45.188;5.712;2023-07-24T12:12:38;9.00;9.00;7.50
71794;PMS7003;59641;45.188;5.712;2023-07-24T12:15:04;7.40;7.00;4.20
71794;PMS7003;59641;45.188;5.712;2023-07-24T12:17:30;6.00;6.00;5.00
71794;PMS7003;59641;45.188;5.712;2023-07-24T12:19:55;7.25;7.25;6.25
71794;PMS7003;59641;45.188;5.712;2023-07-24T12:22:21;8.75;7.50;6.00
71794;PMS7003;59641;45.188;5.712;2023-07-24T12:24:47;7.40;7.00;5.60
71794;PMS7003;59641;45.188;5.712;2023-07-24T12:27:12;9.75;9.00;6.75
71794;PMS7003;59641;45.188;5.712;2023-07-24T12:29:37;9.75;9.75;7.50
71794;PMS7003;59641;45.188;5.712;2023-07-24T12:32:03;8.25;8.25;7.00
71794;PMS7003;59641;45.188;5.712;2023-07-24T12:34:28;8.00;8.00;6.50
71794;PMS7003;59641;45.188;5.712;2023-07-24T12:36:54;7.50;7.00;5.25
71794;PMS7003;59641;45.188;5.712;2023-07-24T12:39:19;7.25;6.00;4.50
71794;PMS7003;59641;45.188;5.712;2023-07-24T12:41:45;6.50;5.50;3.50
71794;PMS7003;59641;45.188;5.712;2023-07-24T12:44:10;7.50;6.75;5.50
71794;PMS7003;59641;45.188;5.712;2023-07-24T12:46:35;8.25;7.75;6.00
71794;PMS7003;59641;45.188;5.712;2023-07-24T12:49:01;6.50;5.50;5.00
71794;PMS7003;59641;45.188;5.712;2023-07-24T12:51:26;8.00;8.00;6.75
71794;PMS7003;59641;45.188;5.712;2023-07-24T12:53:51;11.75;11.00;7.75
71794;PMS7003;59641;45.188;5.712;2023-07-24T12:56:17;8.25;8.25;6.50
71794;PMS7003;59641;45.188;5.712;2023-07-24T12:58:42;10.25;10.25;8.25
71794;PMS7003;59641;45.188;5.712;2023-07-24T13:01:09;11.00;11.00;8.00
71794;PMS7003;59641;45.188;5.712;2023-07-24T13:03:34;8.00;8.00;6.75
71794;PMS7003;59641;45.188;5.712;2023-07-24T13:06:00;8.25;7.25;7.00
71794;PMS7003;59641;45.188;5.712;2023-07-24T13:08:25;11.50;11.50;8.75
71794;PMS7003;59641;45.188;5.712;2023-07-24T13:10:51;7.75;7.75;6.25
71794;PMS7003;59641;45.188;5.712;2023-07-24T13:13:16;10.75;10.75;8.50
71794;PMS7003;59641;45.188;5.712;2023-07-24T13:15:42;14.50;13.25;9.75
71794;PMS7003;59641;45.188;5.712;2023-07-24T13:18:07;13.50;11.00;8.75
71794;PMS7003;59641;45.188;5.712;2023-07-24T13:20:33;12.25;12.25;10.00
71794;PMS7003;59641;45.188;5.712;2023-07-24T13:22:58;12.75;12.75;9.25
71794;PMS7003;59641;45.188;5.712;2023-07-24T13:25:24;11.25;11.25;9.00
71794;PMS7003;59641;45.188;5.712;2023-07-24T13:27:49;10.50;10.50;8.00
71794;PMS7003;59641;45.188;5.712;2023-07-24T13:30:15;13.00;10.25;8.25
71794;PMS7003;59641;45.188;5.712;2023-07-24T13:32:41;11.50;11.50;9.00
71794;PMS7003;59641;45.188;5.712;2023-07-24T13:35:06;13.00;11.50;8.00
71794;PMS7003;59641;45.188;5.712;2023-07-24T13:37:32;11.00;9.25;7.50
71794;PMS7003;59641;45.188;5.712;2023-07-24T13:39:57;10.75;9.50;7.25
71794;PMS7003;59641;45.188;5.712;2023-07-24T13:42:22;12.50;10.25;8.00
71794;PMS7003;59641;45.188;5.712;2023-07-24T13:44:47;10.25;9.00;8.25
71794;PMS7003;59641;45.188;5.712;2023-07-24T13:47:13;13.00;11.75;8.75
71794;PMS7003;59641;45.188;5.712;2023-07-24T13:49:38;11.50;11.00;8.00
71794;PMS7003;59641;45.188;5.712;2023-07-24T13:52:03;12.00;11.50;9.50
71794;PMS7003;59641;45.188;5.712;2023-07-24T13:54:29;13.75;13.75;10.25
71794;PMS7003;59641;45.188;5.712;2023-07-24T13:56:54;16.50;15.25;12.25
71794;PMS7003;59641;45.188;5.712;2023-07-24T13:59:19;11.75;11.75;9.50
71794;PMS7003;59641;45.188;5.712;2023-07-24T14:01:45;11.25;9.50;7.00
71794;PMS7003;59641;45.188;5.712;2023-07-24T14:04:10;10.00;9.75;7.00
71794;PMS7003;59641;45.188;5.712;2023-07-24T14:06:37;11.75;10.75;8.25
71794;PMS7003;59641;45.188;5.712;2023-07-24T14:09:02;11.00;11.00;8.00
71794;PMS7003;59641;45.188;5.712;2023-07-24T14:11:28;11.25;11.25;8.25
71794;PMS7003;59641;45.188;5.712;2023-07-24T14:13:54;10.75;10.00;8.25
71794;PMS7003;59641;45.188;5.712;2023-07-24T14:16:19;11.00;9.00;7.75
71794;PMS7003;59641;45.188;5.712;2023-07-24T14:18:44;13.00;12.25;9.75
71794;PMS7003;59641;45.188;5.712;2023-07-24T14:21:10;12.75;12.50;11.00